Time;durP1;ratioP1;P1;durP2;ratioP2;P2;SDS_P1;SDS_P2;PMS_P1;PMS_P2;Temp;Humidity;BMP_temperature;BMP_pressure;BME280_temperature;BME280_humidity;BME280_pressure;Samples;Min_cycle;Max_cycle;Signal;HPM_P1;HPM_P2
2020/12/29 00:00:09;;;;;;;;;;;;;;;12.61;50.27;95820.56;4960197;28;19929;-80
2020/12/29 00:02:34;;;;;;;;;;;;;;;12.59;50.69;95827.84;4976531;28;19922;-81
2020/12/29 00:04:59;;;;;;;;;;;;;;;12.59;50.70;95820.72;4976759;28;19918;-81
2020/12/29 00:07:24;;;;;;;;;;;;;;;12.61;51.16;95820.56;4959642;28;19922;-81
2020/12/29 00:09:50;;;;;;;;;;;;;;;12.60;50.92;95826.84;4976128;28;20312;-78
2020/12/29 00:12:15;;;;;;;;;;;;;;;12.65;50.98;95821.84;4977306;28;19962;-80
2020/12/29 00:14:40;;;;;;;;;;;;;;;12.63;51.05;95818.53;4959737;28;19922;-83
2020/12/29 00:17:06;;;;;;;;;;;;;;;12.66;50.68;95823.50;4974449;28;20301;-79
2020/12/29 00:19:31;;;;;;;;;;;;;;;12.66;50.57;95824.31;4977084;28;19937;-81
2020/12/29 00:21:56;;;;;;;;;;;;;;;12.68;50.85;95821.50;4960276;28;20477;-81
2020/12/29 00:24:22;;;;;;;;;;;;;;;12.67;50.83;95825.97;4977450;28;19929;-82
2020/12/29 18:44:39;;;;;;;;;;;;;;;10.89;54.93;97546.94;4800110;26;19932;-82
2020/12/29 18:47:04;;;;;;;;;;;;;;;10.88;54.86;97542.59;4995109;28;19921;-82
2020/12/29 18:49:29;;;;;;;;;;;;;;;10.90;55.07;97548.63;4995103;28;19922;-79
2020/12/29 18:51:55;;;;;;;;;;;;;;;10.94;54.60;97550.06;4997398;28;19922;-81
2020/12/29 18:54:21;;;;;;;;;;;;;;;10.94;54.92;97550.06;4997464;28;19929;-79
2020/12/29 18:56:46;;;;;;;;;;;;;;;11.00;55.45;97560.16;4993992;28;19957;-82
2020/12/29 18:59:11;;;;;;;;;;;;;;;11.06;55.57;97558.84;4997383;28;19925;-82
2020/12/29 19:01:37;;;;;;;;;;;;;;;11.09;55.89;97562.09;5012386;28;20004;-81
2020/12/29 19:04:02;;;;;;;;;;;;;;;11.20;57.74;97565.66;4994890;28;20238;-81
2020/12/29 19:06:28;;;;;;;;;;;;;;;11.30;56.22;97573.75;4995708;28;20455;-81
2020/12/29 19:08:53;;;;;;;;;;;;;;;11.42;55.26;97562.97;4994830;28;19937;-81
2020/12/29 19:11:23;;;;;;;;;;;;;;;11.44;55.80;97570.81;5011086;28;19945;-81
2020/12/29 19:13:48;;;;;;;;;;;;;;;11.49;55.72;97570.41;4994697;28;19998;-81
2020/12/29 19:16:18;;;;;;;;;;;;;;;11.57;55.06;97576.78;4995747;28;20024;-79
2020/12/29 19:18:46;;;;;;;;;;;;;;;11.60;55.18;97578.34;4994978;28;19918;-82
2020/12/29 19:21:12;;;;;;;;;;;;;;;11.64;54.99;97585.91;4997292;28;19925;-82
2020/12/29 19:23:43;;;;;;;;;;;;;;;11.68;54.92;97585.66;4997126;28;19922;-82
2020/12/29 19:26:08;;;;;;;;;;;;;;;11.71;54.85;97591.56;4995607;28;20285;-83
2020/12/29 19:28:34;;;;;;;;;;;;;;;11.74;54.69;97591.31;4997082;28;19940;-82
2020/12/29 19:30:59;;;;;;;;;;;;;;;11.79;54.92;97601.53;4992862;28;19933;-82
2020/12/29 19:33:24;;;;;;;;;;;;;;;11.81;54.91;97591.66;4996022;28;19933;-79
2020/12/29 19:35:50;;;;;;;;;;;;;;;11.78;53.99;97591.91;4996785;28;20008;-81
2020/12/29 19:38:15;;;;;;;;;;;;;;;11.77;54.74;97596.34;4995729;28;20255;-81
2020/12/29 19:40:40;;;;;;;;;;;;;;;11.81;54.79;97589.84;4995245;28;19926;-80
2020/12/29 19:43:06;;;;;;;;;;;;;;;11.88;54.21;97587.50;4996405;28;19930;-81
2020/12/29 19:45:31;;;;;;;;;;;;;;;11.85;54.40;97586.94;4996871;28;19932;-82
2020/12/29 19:47:56;;;;;;;;;;;;;;;11.86;54.24;97593.94;4995357;28;19932;-82
2020/12/29 19:50:22;;;;;;;;;;;;;;;11.91;54.42;97591.72;4997481;28;20197;-82
2020/12/29 19:52:47;;;;;;;;;;;;;;;11.92;54.69;97602.25;5000435;28;19922;-80
2020/12/29 19:55:13;;;;;;;;;;;;;;;11.90;54.45;97603.31;4998740;28;20209;-81
2020/12/29 19:57:38;;;;;;;;;;;;;;;11.89;54.33;97601.63;5000415;28;19922;-83
2020/12/29 20:00:04;;;;;;;;;;;;;;;11.90;54.18;97606.81;5001139;28;20273;-83
2020/12/29 20:02:30;;;;;;;;;;;;;;;11.91;53.41;97610.31;4998868;28;19995;-82
2020/12/29 20:04:56;;;;;;;;;;;;;;;11.89;54.23;97614.91;5000710;28;20278;-81
2020/12/29 20:07:21;;;;;;;;;;;;;;;11.89;54.20;97612.25;4999907;28;19984;-82
2020/12/29 20:09:46;;;;;;;;;;;;;;;11.90;53.73;97614.78;4999488;28;20040;-82
2020/12/29 20:12:12;;;;;;;;;;;;;;;11.91;54.19;97619.09;5000219;28;19941;-82
2020/12/29 20:14:37;;;;;;;;;;;;;;;11.90;54.12;97619.22;4999370;28;20284;-80
2020/12/29 20:17:02;;;;;;;;;;;;;;;11.92;54.04;97626.13;4998517;28;19922;-81
2020/12/29 20:19:28;;;;;;;;;;;;;;;11.96;53.64;97624.06;4998474;28;19995;-81
2020/12/29 20:21:53;;;;;;;;;;;;;;;11.96;53.94;97624.06;5000555;28;20201;-82
2020/12/29 20:24:18;;;;;;;;;;;;;;;11.96;53.68;97626.72;4997051;28;19929;-82
2020/12/29 20:26:44;;;;;;;;;;;;;;;11.98;54.03;97622.97;4999888;28;20244;-82
2020/12/29 20:29:10;;;;;;;;;;;;;;;11.99;54.16;97623.81;4997459;28;19918;-81
2020/12/29 20:31:35;;;;;;;;;;;;;;;11.95;53.08;97625.88;4993194;28;19926;-82
2020/12/29 20:34:01;;;;;;;;;;;;;;;11.94;53.93;97628.66;4980022;28;19922;-82
2020/12/29 20:36:30;;;;;;;;;;;;;;;12.01;53.97;97635.13;4963483;28;19928;-81
2020/12/29 20:38:56;;;;;;;;;;;;;;;12.01;53.84;97632.47;4979649;28;20313;-82
2020/12/29 20:41:22;;;;;;;;;;;;;;;12.01;53.78;97632.47;4961877;28;19922;-80
2020/12/29 20:43:49;;;;;;;;;;;;;;;12.01;52.63;97629.81;4980493;28;19922;-80
2020/12/29 20:46:14;;;;;;;;;;;;;;;11.98;53.72;97630.94;4982407;28;19993;-82
2020/12/29 20:48:40;;;;;;;;;;;;;;;11.98;53.62;97630.06;4979957;28;19969;-82
2020/12/29 20:51:05;;;;;;;;;;;;;;;11.97;53.71;97634.53;4978690;28;19930;-82
2020/12/29 20:53:31;;;;;;;;;;;;;;;11.96;53.41;97638.16;4962915;28;19930;-81
2020/12/29 20:55:56;;;;;;;;;;;;;;;11.95;53.47;97631.19;4976803;28;20404;-79
2020/12/29 20:58:21;;;;;;;;;;;;;;;11.95;53.66;97636.50;4980072;28;19922;-81
2020/12/29 21:00:47;;;;;;;;;;;;;;;11.96;52.84;97637.31;4980000;28;20417;-82
2020/12/29 21:03:12;;;;;;;;;;;;;;;11.95;53.41;97635.63;4977971;28;19922;-82
2020/12/29 21:05:37;;;;;;;;;;;;;;;11.93;52.97;97637.56;4979689;28;19929;-83
2020/12/29 21:08:03;;;;;;;;;;;;;;;11.92;53.54;97636.75;4962604;28;19926;-81
2020/12/29 21:10:28;;;;;;;;;;;;;;;11.92;53.58;97646.53;4980026;28;19922;-81
2020/12/29 21:12:54;;;;;;;;;;;;;;;11.96;53.54;97646.13;4980017;28;19922;-79
2020/12/29 21:15:19;;;;;;;;;;;;;;;11.95;53.64;97652.41;4979752;28;19922;-81
2020/12/29 21:17:44;;;;;;;;;;;;;;;11.96;53.58;97647.94;4961872;28;20009;-80
2020/12/29 21:20:10;;;;;;;;;;;;;;;11.99;53.27;97645.03;4979540;28;19926;-81
2020/12/29 21:22:35;;;;;;;;;;;;;;;11.98;53.33;97651.31;4978249;28;20321;-82
2020/12/29 21:25:01;;;;;;;;;;;;;;;11.91;52.07;97650.09;4978663;28;19922;-81
